Terminal Aerodrome Forecast
Issued by NWS Sioux Falls, SD

Home | Current Version | Previous Version | Text Only | Print | Product List | Glossary On
Versions: 1 2 3 4 5 6 7 8 9 10 11 12 13 14 15 16 17 18
000
FTUS43 KFSD 231720
TAFSUX
TAF
KSUX 231720Z 2318/2418 15007KT P6SM BKN045
     FM232100 16013G19KT P6SM BKN060
     FM240500 15010KT P6SM SCT070 WS020/17040KT
     FM241000 15009KT P6SM SCT050 SCT120
     FM241500 17013G23KT P6SM SCT080=

USA.gov is the U.S. government's official web portal to all federal, state and local government web resources and services.